Weather at Pirot Barracks Heliport

Public forecast

Using degrees Celsius for public forecast. Weather courtesy of forecast.io.

Closest aviation weather report (METAR) to Pirot Barracks Heliport

Closest report is Niš Constantine the Great Airport, 34.5 nm (63.9 km) WNW.

2024/05/20 18:00 (retrieved 33 minutes ago)

LYNI 201800Z 06008KT CAVOK 21/16 Q1013 NOSIG

Closest aviation forecast (TAF) to Pirot Barracks Heliport

Closest forecast is Niš Constantine the Great Airport, 34.5 nm (63.9 km) WNW.

2024/05/20 18:21 (retrieved 12 minutes ago)

TAF LYNI 201700Z 2018/2118 06006KT CAVOK TX26/2114Z TN15/2103Z BECMG 2106/2108 12012KT TEMPO 2111/2117 24015G25KT 3000 TSRA SCT030CB SCT040